CheckWX is a tool to help pilots better visualize weather data.  It is not intended as a substitute for an official pre-flight weather briefing.

19:46:58 UTC

LLHA TAF
Haifa International Airport
Haifa, Israel
TAF LLHA 291705Z 2918/3018 29006KT 9999 SCT030 BECMG 2920/2923 16006KT FM301000 22012KT 9999 SCT030 PROB40 3010/3018 -RA BKN030 TX17/3012Z TN11/3004Z

Jan-29@
18:00 UTC

Jan-29 @ 18:00 UTC

Jan-29@
20:00 UTC

Jan-29 @ 20:00 UTC

TAF LLHA 291705Z 2918/3018 29006KT 9999 SCT030
Wind
  • 290° at 6 KTS
Cloud Levels
  • Scattered at 3,000' AGL

Jan-29@
20:00 UTC

Jan-29 @ 20:00 UTC

Jan-30@
10:00 UTC

Jan-30 @ 10:00 UTC

BECMG 2920/2923 16006KT

Becoming

Becoming Conditions expected by Wed, Jan 29, 2020 @ 23:00 UTC

Wind
  • 160° at 6 KTS
Cloud Levels
  • Scattered at 3,000' AGL

Jan-30@
10:00 UTC

Jan-30 @ 10:00 UTC

Jan-30@
18:00 UTC

Jan-30 @ 18:00 UTC

FM301000 22012KT 9999 SCT030

From

From Standard forecast or significant change

Wind
  • 220° at 12 KTS
Cloud Levels
  • Scattered at 3,000' AGL

Jan-30@
10:00 UTC

Jan-30 @ 10:00 UTC

Jan-30@
18:00 UTC

Jan-30 @ 18:00 UTC

PROB40 3010/3018 -RA BKN030 TX17/3012Z TN11/3004Z

Probable - 40% Likelihood

Probable - 40% Likelihood during this time.

Conditions
Light Rain
Cloud Levels
  • Broken at 3,000' AGL